Time;durP1;ratioP1;P1;durP2;ratioP2;P2;SDS_P1;SDS_P2;PMS_P1;PMS_P2;Temp;Humidity;BMP_temperature;BMP_pressure;BME280_temperature;BME280_humidity;BME280_pressure;Samples;Min_cycle;Max_cycle;Signal;HPM_P1;HPM_P2
2023/12/27 00:00:29;;;;;;;7.13;2.03;;;4.70;99.90;;;;;;5056231;28;20462;-52
2023/12/27 00:02:55;;;;;;;11.73;2.13;;;4.60;99.90;;;;;;5065193;28;20041;-50
2023/12/27 00:05:21;;;;;;;6.65;2.13;;;4.60;99.90;;;;;;5060643;28;20045;-50
2023/12/27 00:07:47;;;;;;;10.95;2.08;;;4.70;99.90;;;;;;5063149;28;20063;-47
2023/12/27 00:10:13;;;;;;;11.68;2.42;;;4.70;99.90;;;;;;5053617;28;20207;-47
2023/12/27 00:12:39;;;;;;;9.70;2.30;;;4.70;99.90;;;;;;5065435;28;20036;-50
2023/12/27 00:15:05;;;;;;;8.05;1.92;;;4.70;99.90;;;;;;5064341;28;20040;-47
2023/12/27 00:17:31;;;;;;;11.30;2.50;;;4.70;99.90;;;;;;5065582;28;20040;-50
2023/12/27 00:19:56;;;;;;;12.98;2.20;;;4.60;99.90;;;;;;5064438;28;20052;-50
2023/12/27 00:22:23;;;;;;;17.35;2.63;;;4.60;99.90;;;;;;5064511;28;20502;-52
2023/12/27 00:24:49;;;;;;;7.78;2.50;;;4.60;99.90;;;;;;5063680;28;20108;-52
2023/12/27 00:27:15;;;;;;;11.90;2.70;;;4.60;99.90;;;;;;5064785;28;20115;-47
2023/12/27 00:29:41;;;;;;;10.50;2.75;;;4.50;99.90;;;;;;5063322;28;20032;-47
2023/12/27 00:32:08;;;;;;;12.82;2.45;;;4.40;99.90;;;;;;5063523;28;20525;-49
2023/12/27 00:34:38;;;;;;;10.70;2.67;;;4.40;99.90;;;;;;5061206;28;20040;-49
2023/12/27 00:37:04;;;;;;;10.77;3.75;;;4.40;99.90;;;;;;5065445;28;20043;-48
2023/12/27 00:39:30;;;;;;;7.57;2.00;;;4.40;99.90;;;;;;5059195;28;20076;-48
2023/12/27 00:41:56;;;;;;;9.30;2.50;;;4.50;99.90;;;;;;5063754;28;20502;-47
2023/12/27 00:44:22;;;;;;;8.18;2.30;;;4.50;99.90;;;;;;5064071;28;20230;-47
2023/12/27 00:46:48;;;;;;;12.68;2.72;;;4.50;99.90;;;;;;5064045;28;20124;-48
2023/12/27 00:49:15;;;;;;;5.63;2.20;;;4.50;99.90;;;;;;5051622;28;20044;-49
2023/12/27 00:51:40;;;;;;;9.25;2.10;;;4.50;99.90;;;;;;5062023;28;20495;-48
2023/12/27 00:54:06;;;;;;;10.00;2.70;;;4.50;99.90;;;;;;5063563;28;20043;-50
2023/12/27 00:56:32;;;;;;;8.35;2.20;;;4.50;99.90;;;;;;5061393;28;20119;-47
2023/12/27 00:58:58;;;;;;;10.95;2.55;;;4.50;99.90;;;;;;5062556;28;20163;-49
2023/12/27 01:01:24;;;;;;;8.98;2.30;;;4.40;99.90;;;;;;5062565;28;20047;-51
2023/12/27 01:03:50;;;;;;;11.80;2.63;;;4.40;99.90;;;;;;5063070;28;20036;-49
2023/12/27 01:06:16;;;;;;;8.93;2.60;;;4.30;99.90;;;;;;5055508;28;20437;-49
2023/12/27 01:08:42;;;;;;;9.35;2.20;;;4.30;99.90;;;;;;5061228;28;20044;-50
2023/12/27 01:11:07;;;;;;;14.38;2.42;;;4.30;99.90;;;;;;5063728;28;20040;-50
2023/12/27 01:13:33;;;;;;;11.32;2.72;;;4.30;99.90;;;;;;5056893;28;20037;-47
2023/12/27 01:16:00;;;;;;;9.88;2.17;;;4.30;99.90;;;;;;5063431;28;20072;-47
2023/12/27 01:18:26;;;;;;;6.88;2.28;;;4.30;99.90;;;;;;5057341;28;20460;-51
2023/12/27 01:20:51;;;;;;;13.60;2.47;;;4.30;99.90;;;;;;5063755;28;20591;-51
2023/12/27 01:23:17;;;;;;;12.50;2.28;;;4.20;99.90;;;;;;5053146;28;20041;-48
2023/12/27 01:25:43;;;;;;;8.65;2.58;;;4.10;99.90;;;;;;5045961;28;20040;-51
2023/12/27 01:28:09;;;;;;;12.27;3.72;;;4.10;99.90;;;;;;5043282;28;20391;-52
2023/12/27 01:30:35;;;;;;;6.47;2.22;;;4.00;99.90;;;;;;5062861;28;20055;-47
2023/12/27 01:33:01;;;;;;;8.27;2.50;;;4.00;99.90;;;;;;5061653;28;20343;-47
2023/12/27 01:35:27;;;;;;;11.88;2.95;;;4.10;99.90;;;;;;5064324;28;20040;-49
2023/12/27 01:37:53;;;;;;;10.20;3.42;;;4.10;99.90;;;;;;5040384;28;20044;-51
2023/12/27 01:40:19;;;;;;;16.00;3.80;;;4.10;99.90;;;;;;5052195;28;20097;-51
2023/12/27 01:42:45;;;;;;;14.13;4.25;;;4.10;99.90;;;;;;5051949;28;20045;-50
2023/12/27 01:45:11;;;;;;;18.65;4.53;;;4.10;99.90;;;;;;5062862;28;20477;-49
2023/12/27 01:47:37;;;;;;;11.80;2.90;;;4.10;99.90;;;;;;5061785;28;20831;-49
2023/12/27 01:50:09;;;;;;;8.05;3.15;;;4.10;99.90;;;;;;5063310;28;20150;-47
2023/12/27 01:52:39;;;;;;;10.05;3.42;;;4.10;99.90;;;;;;5060385;28;20051;-47
2023/12/27 01:55:06;;;;;;;11.00;3.28;;;4.10;99.90;;;;;;5061660;28;20505;-50
2023/12/27 01:57:32;;;;;;;18.30;3.35;;;4.10;99.90;;;;;;5059611;28;20040;-50
2023/12/27 01:59:58;;;;;;;10.05;3.38;;;4.00;99.90;;;;;;5063175;28;20064;-48
2023/12/27 02:02:25;;;;;;;11.75;3.63;;;3.90;99.90;;;;;;5061108;28;20040;-49
2023/12/27 02:04:50;;;;;;;11.15;3.70;;;3.90;99.90;;;;;;5062805;28;20063;-49
2023/12/27 02:07:17;;;;;;;17.25;5.35;;;3.80;99.90;;;;;;5059627;28;20037;-50
2023/12/27 02:09:45;;;;;;;10.77;4.53;;;3.80;99.90;;;;;;5061260;28;20338;-48
2023/12/27 02:12:24;;;;;;;14.02;4.57;;;3.80;99.90;;;;;;5060486;28;20060;-49
2023/12/27 02:14:50;;;;;;;12.75;3.78;;;3.80;99.90;;;;;;5059153;28;20040;-47
2023/12/27 02:17:15;;;;;;;11.15;4.32;;;3.80;99.90;;;;;;5043979;28;20386;-49
2023/12/27 02:19:41;;;;;;;11.88;3.47;;;3.80;99.90;;;;;;5061741;28;20410;-47
2023/12/27 02:22:11;;;;;;;12.30;3.42;;;3.70;99.90;;;;;;5061977;28;20036;-49
2023/12/27 02:24:37;;;;;;;12.82;3.55;;;3.60;99.90;;;;;;5057803;28;20368;-48
2023/12/27 02:27:03;;;;;;;13.63;2.88;;;3.60;99.90;;;;;;5061901;28;20048;-49
2023/12/27 02:29:29;;;;;;;7.90;3.42;;;3.60;99.90;;;;;;5063023;28;20044;-51
2023/12/27 02:31:55;;;;;;;12.05;3.03;;;3.60;99.90;;;;;;5061741;28;20464;-48
2023/12/27 02:34:21;;;;;;;13.68;2.70;;;3.50;99.90;;;;;;5062129;28;20545;-50
2023/12/27 02:36:47;;;;;;;9.63;2.63;;;3.50;99.90;;;;;;5055566;28;20044;-48
2023/12/27 02:39:13;;;;;;;9.82;2.40;;;3.50;99.90;;;;;;5054940;28;20036;-51
2023/12/27 02:41:39;;;;;;;8.38;2.97;;;3.60;99.90;;;;;;5060829;28;20079;-48
2023/12/27 02:44:05;;;;;;;8.57;2.47;;;3.60;99.90;;;;;;5062056;28;20044;-48
2023/12/27 02:46:33;;;;;;;7.93;2.63;;;3.40;99.90;;;;;;5061785;28;20048;-47
2023/12/27 02:48:59;;;;;;;10.32;2.53;;;3.40;99.90;;;;;;5043415;28;20102;-48
2023/12/27 02:51:25;;;;;;;10.70;3.17;;;3.50;99.90;;;;;;5060630;28;20036;-47
2023/12/27 02:53:51;;;;;;;8.77;2.58;;;3.30;99.90;;;;;;5052843;28;20499;-50
2023/12/27 02:56:17;;;;;;;11.13;2.40;;;3.30;99.90;;;;;;5060078;28;20068;-47
2023/12/27 02:58:43;;;;;;;10.27;2.72;;;3.30;99.90;;;;;;5042593;28;20032;-50
2023/12/27 03:01:08;;;;;;;12.85;2.53;;;3.30;99.90;;;;;;5061233;28;20490;-51
2023/12/27 03:03:34;;;;;;;11.13;2.75;;;3.30;99.90;;;;;;5059052;28;20047;-48
2023/12/27 03:06:00;;;;;;;5.82;2.53;;;3.30;99.90;;;;;;5061384;28;20514;-50
2023/12/27 03:08:25;;;;;;;7.13;2.63;;;3.30;99.90;;;;;;5057376;28;20510;-48
2023/12/27 03:10:51;;;;;;;10.35;3.10;;;3.30;99.90;;;;;;5062110;28;20082;-47
2023/12/27 03:13:17;;;;;;;10.27;2.72;;;3.20;99.90;;;;;;5053135;28;20040;-49
2023/12/27 03:15:43;;;;;;;9.07;2.78;;;3.20;99.90;;;;;;5061521;28;20037;-46
2023/12/27 03:18:08;;;;;;;12.00;2.58;;;3.20;99.90;;;;;;5061741;28;20043;-50
2023/12/27 03:20:34;;;;;;;10.50;2.55;;;3.20;99.90;;;;;;5062245;28;20451;-47
2023/12/27 03:23:00;;;;;;;9.43;2.97;;;3.20;99.90;;;;;;5059618;28;20518;-50
2023/12/27 03:25:26;;;;;;;11.98;2.40;;;3.30;99.90;;;;;;5061027;28;20070;-47
2023/12/27 03:27:51;;;;;;;8.25;2.28;;;3.20;99.90;;;;;;5058969;28;20390;-50
2023/12/27 03:30:17;;;;;;;8.90;2.60;;;3.30;99.90;;;;;;5061420;28;20056;-49
2023/12/27 03:32:43;;;;;;;9.40;2.60;;;3.30;99.90;;;;;;5060510;28;20278;-47
2023/12/27 03:35:09;;;;;;;11.15;2.75;;;3.20;99.90;;;;;;5041349;28;20064;-48
2023/12/27 03:37:34;;;;;;;13.57;2.55;;;3.20;99.90;;;;;;5061620;28;20453;-49
2023/12/27 03:40:00;;;;;;;15.77;2.42;;;3.30;99.90;;;;;;5055106;28;20427;-46
2023/12/27 03:42:26;;;;;;;6.93;2.17;;;3.20;99.90;;;;;;5051176;28;20267;-47
2023/12/27 03:44:52;;;;;;;10.95;3.28;;;3.30;99.90;;;;;;5061597;28;20536;-50
2023/12/27 03:47:21;;;;;;;11.45;2.72;;;3.40;99.90;;;;;;5048604;28;20119;-50
2023/12/27 03:49:47;;;;;;;11.98;2.63;;;3.40;99.90;;;;;;5054495;28;20041;-51
2023/12/27 03:52:12;;;;;;;9.57;2.33;;;3.50;99.90;;;;;;5054105;28;20044;-47
2023/12/27 03:54:38;;;;;;;22.35;3.33;;;3.50;99.90;;;;;;5060734;28;20045;-48
2023/12/27 03:57:04;;;;;;;16.23;2.70;;;3.50;99.90;;;;;;5059272;28;20052;-49
2023/12/27 03:59:30;;;;;;;11.23;2.47;;;3.40;99.90;;;;;;5055776;28;20040;-51
2023/12/27 04:01:56;;;;;;;9.63;2.60;;;3.40;99.90;;;;;;5041530;28;20052;-52
2023/12/27 04:04:21;;;;;;;11.80;2.40;;;3.50;99.90;;;;;;5054889;28;20119;-50
2023/12/27 04:06:47;;;;;;;9.55;2.75;;;3.40;99.90;;;;;;5057048;28;20055;-51
2023/12/27 04:09:13;;;;;;;12.15;3.13;;;3.40;99.90;;;;;;5059906;28;20048;-47
2023/12/27 04:11:45;;;;;;;9.25;2.63;;;3.40;99.90;;;;;;5058660;28;20048;-52
2023/12/27 04:14:15;;;;;;;12.65;3.55;;;3.40;99.90;;;;;;5059911;28;20829;-49
2023/12/27 04:16:41;;;;;;;14.95;3.20;;;3.40;99.90;;;;;;5059984;28;20052;-48
2023/12/27 04:19:07;;;;;;;10.68;3.10;;;3.40;99.90;;;;;;5057661;28;20048;-47
2023/12/27 04:21:33;;;;;;;11.63;3.42;;;3.40;99.90;;;;;;5059381;28;20040;-48
2023/12/27 04:23:58;;;;;;;13.50;3.20;;;3.40;99.90;;;;;;5057716;28;20040;-50
2023/12/27 04:26:24;;;;;;;15.95;3.03;;;3.50;99.90;;;;;;5061820;28;20036;-48
2023/12/27 04:28:50;;;;;;;10.50;3.42;;;3.40;99.90;;;;;;5056826;28;20117;-47
2023/12/27 04:31:15;;;;;;;11.60;2.85;;;3.40;99.90;;;;;;5064330;28;20546;-50
2023/12/27 04:33:41;;;;;;;10.88;2.78;;;3.40;99.90;;;;;;5063837;28;20056;-48
2023/12/27 04:36:07;;;;;;;12.82;3.15;;;3.40;99.90;;;;;;5063973;28;20042;-48
2023/12/27 04:38:33;;;;;;;11.80;2.80;;;3.50;99.90;;;;;;5064342;28;20040;-50
2023/12/27 04:40:59;;;;;;;14.43;3.00;;;3.50;99.90;;;;;;5064214;28;20048;-49
2023/12/27 04:43:24;;;;;;;11.63;3.05;;;3.50;99.90;;;;;;5044609;28;20461;-51
2023/12/27 04:45:50;;;;;;;16.05;3.92;;;3.50;99.90;;;;;;5064352;28;20432;-51
2023/12/27 04:48:16;;;;;;;14.25;3.70;;;3.60;99.90;;;;;;5064223;28;20411;-51
2023/12/27 04:50:42;;;;;;;9.63;3.47;;;3.50;99.90;;;;;;5059904;28;20063;-49
2023/12/27 04:53:07;;;;;;;15.63;3.53;;;3.60;99.90;;;;;;5062976;28;20482;-50
2023/12/27 04:55:34;;;;;;;9.85;2.97;;;3.60;99.90;;;;;;5061997;28;20511;-48
2023/12/27 04:58:00;;;;;;;17.40;3.17;;;3.60;99.90;;;;;;5048475;28;20444;-50
2023/12/27 05:00:25;;;;;;;12.25;3.72;;;3.50;99.90;;;;;;5056825;28;20089;-48
2023/12/27 05:02:51;;;;;;;11.82;2.85;;;3.60;99.90;;;;;;5063838;28;20041;-49
2023/12/27 05:05:17;;;;;;;16.02;4.28;;;3.60;99.90;;;;;;5061783;28;20041;-48
2023/12/27 05:07:43;;;;;;;15.13;4.72;;;3.60;99.90;;;;;;5063539;28;20714;-47
2023/12/27 05:10:09;;;;;;;13.75;3.92;;;3.50;99.90;;;;;;5042785;28;20048;-47
2023/12/27 05:12:35;;;;;;;11.73;3.25;;;3.60;99.90;;;;;;5063690;28;20033;-47
2023/12/27 05:15:01;;;;;;;16.33;3.70;;;3.60;99.90;;;;;;5060207;28;20495;-48
2023/12/27 05:17:27;;;;;;;9.38;3.33;;;3.60;99.90;;;;;;5063036;28;20067;-48
2023/12/27 05:19:52;;;;;;;10.95;3.65;;;3.70;99.90;;;;;;5045323;28;20047;-48
2023/12/27 05:22:20;;;;;;;11.70;3.72;;;3.70;99.90;;;;;;5055871;28;20044;-50
2023/12/27 05:24:46;;;;;;;22.33;4.18;;;3.70;99.90;;;;;;5044356;28;20044;-47
2023/12/27 05:27:12;;;;;;;13.93;3.70;;;3.70;99.90;;;;;;5059220;28;20485;-48
2023/12/27 05:29:38;;;;;;;11.35;3.63;;;3.70;99.90;;;;;;5062838;28;20056;-47
2023/12/27 05:32:04;;;;;;;19.52;3.95;;;3.80;99.90;;;;;;5062904;28;20052;-49
2023/12/27 05:34:30;;;;;;;16.48;3.75;;;3.80;99.90;;;;;;5056328;28;20037;-47
2023/12/27 05:36:56;;;;;;;10.77;3.97;;;3.80;99.90;;;;;;5057653;28;20675;-52
2023/12/27 05:39:21;;;;;;;14.15;3.83;;;3.80;99.90;;;;;;5060831;28;20060;-49
2023/12/27 05:41:47;;;;;;;15.63;3.65;;;3.80;99.90;;;;;;5062500;28;20414;-49
2023/12/27 05:44:13;;;;;;;9.60;3.53;;;3.80;99.90;;;;;;5062372;28;20040;-49
2023/12/27 05:46:39;;;;;;;15.60;3.58;;;3.80;99.90;;;;;;5054668;28;20047;-48
2023/12/27 05:49:04;;;;;;;15.25;5.32;;;3.80;99.90;;;;;;5063009;28;20041;-47
2023/12/27 05:51:31;;;;;;;11.45;3.20;;;3.90;99.90;;;;;;5061855;28;20041;-50
2023/12/27 05:53:57;;;;;;;13.95;3.63;;;3.90;99.90;;;;;;5062032;28;20076;-51
2023/12/27 05:56:23;;;;;;;10.90;3.55;;;3.90;99.90;;;;;;5060325;28;20190;-48
2023/12/27 05:58:48;;;;;;;11.77;3.35;;;3.90;99.90;;;;;;5034801;28;20036;-49
2023/12/27 06:01:14;;;;;;;11.77;3.22;;;3.90;99.90;;;;;;5044864;28;20044;-50
2023/12/27 06:03:40;;;;;;;12.30;3.53;;;3.90;99.90;;;;;;5051254;28;20565;-47
2023/12/27 06:06:06;;;;;;;12.65;3.42;;;4.20;99.90;;;;;;5058996;28;20040;-51
2023/12/27 06:08:32;;;;;;;17.50;3.30;;;4.00;99.90;;;;;;5061101;28;20499;-50
2023/12/27 06:10:57;;;;;;;10.77;3.38;;;4.00;99.90;;;;;;5062899;28;20076;-51
2023/12/27 06:13:23;;;;;;;13.63;3.90;;;4.00;99.90;;;;;;5061559;28;20033;-46
2023/12/27 06:15:49;;;;;;;18.73;3.45;;;4.00;99.90;;;;;;5053422;28;20047;-49
2023/12/27 06:18:14;;;;;;;14.40;3.03;;;4.00;99.90;;;;;;5054020;28;20126;-48
2023/12/27 06:20:40;;;;;;;13.07;3.10;;;4.00;99.90;;;;;;5060609;28;20048;-49
2023/12/27 06:23:06;;;;;;;12.88;3.75;;;4.00;99.90;;;;;;5060499;28;20036;-52
2023/12/27 06:25:32;;;;;;;12.15;3.72;;;4.00;99.90;;;;;;5063409;28;20055;-50
2023/12/27 06:27:57;;;;;;;14.73;3.50;;;4.00;99.90;;;;;;5056794;28;20046;-47
2023/12/27 06:30:23;;;;;;;11.85;3.67;;;4.00;99.90;;;;;;5061395;28;20073;-47
2023/12/27 06:32:49;;;;;;;20.13;3.97;;;4.00;99.90;;;;;;5058496;28;20143;-50
2023/12/27 06:35:15;;;;;;;12.20;4.22;;;4.00;99.90;;;;;;5058088;28;20471;-46
2023/12/27 06:37:41;;;;;;;16.70;3.63;;;4.10;99.90;;;;;;5060771;28;20041;-51
2023/12/27 06:40:08;;;;;;;10.77;3.67;;;4.10;99.90;;;;;;5059183;28;20091;-50
2023/12/27 06:42:34;;;;;;;17.83;3.00;;;4.20;99.90;;;;;;5059420;28;20506;-53
2023/12/27 06:45:01;;;;;;;13.35;3.35;;;4.20;99.90;;;;;;5061634;28;20063;-46
2023/12/27 06:47:26;;;;;;;16.38;3.70;;;4.20;99.90;;;;;;5042752;28;20051;-47
2023/12/27 06:49:52;;;;;;;11.40;3.50;;;4.20;99.90;;;;;;5062027;28;20048;-51
2023/12/27 06:52:18;;;;;;;12.30;3.25;;;4.30;99.90;;;;;;5060819;28;20560;-47
2023/12/27 06:54:44;;;;;;;10.13;3.00;;;4.40;99.90;;;;;;5060697;28;20516;-49
2023/12/27 06:57:09;;;;;;;9.55;3.42;;;4.40;99.90;;;;;;5060804;28;20028;-48
2023/12/27 06:59:35;;;;;;;12.88;2.70;;;4.40;99.90;;;;;;5055406;28;20076;-51
2023/12/27 07:02:01;;;;;;;10.25;2.50;;;4.30;99.90;;;;;;5041123;28;20087;-51
2023/12/27 07:04:27;;;;;;;10.50;2.65;;;4.40;99.90;;;;;;5055546;28;20053;-49
2023/12/27 07:06:53;;;;;;;11.10;2.55;;;4.50;99.90;;;;;;5058748;28;20040;-50
2023/12/27 07:09:20;;;;;;;17.70;2.92;;;4.40;99.90;;;;;;5059633;28;20138;-51
2023/12/27 07:11:45;;;;;;;12.35;2.83;;;4.50;99.90;;;;;;5053495;28;20402;-48
2023/12/27 07:14:11;;;;;;;13.18;2.45;;;4.50;99.90;;;;;;5058679;28;20043;-50
2023/12/27 07:16:37;;;;;;;5.40;2.13;;;4.50;99.90;;;;;;5059180;28;20037;-49
2023/12/27 07:19:03;;;;;;;14.98;2.80;;;4.50;99.90;;;;;;5057467;28;20043;-49
2023/12/27 07:21:30;;;;;;;11.85;2.80;;;4.60;99.90;;;;;;5058393;28;20044;-46
2023/12/27 07:23:55;;;;;;;9.15;2.88;;;4.50;99.90;;;;;;5059177;28;20041;-47
2023/12/27 07:26:22;;;;;;;11.70;2.95;;;4.60;99.90;;;;;;5056922;28;20098;-48
2023/12/27 07:28:48;;;;;;;10.80;2.13;;;4.60;99.90;;;;;;5060736;28;20041;-47
2023/12/27 07:31:13;;;;;;;13.85;2.92;;;4.60;99.90;;;;;;5055877;28;20036;-48
2023/12/27 07:33:39;;;;;;;14.18;2.67;;;4.70;99.90;;;;;;5056776;28;20426;-47
2023/12/27 07:36:06;;;;;;;14.13;3.78;;;4.70;99.90;;;;;;5058283;28;20047;-46
2023/12/27 07:38:32;;;;;;;7.85;2.30;;;4.70;99.90;;;;;;5059484;28;20411;-46
2023/12/27 07:40:58;;;;;;;12.70;2.50;;;4.70;99.90;;;;;;5059794;28;20040;-48
2023/12/27 07:43:25;;;;;;;11.00;3.50;;;4.70;99.90;;;;;;5059907;28;20098;-50
2023/12/27 07:45:50;;;;;;;18.38;2.75;;;4.70;99.90;;;;;;5055951;28;20814;-48
2023/12/27 07:48:16;;;;;;;10.77;2.65;;;4.70;99.90;;;;;;5061274;28;20120;-47
2023/12/27 07:50:42;;;;;;;15.05;3.03;;;4.70;99.90;;;;;;5061482;28;20503;-48
2023/12/27 07:53:08;;;;;;;12.30;3.28;;;4.70;99.90;;;;;;5062148;28;20778;-48
2023/12/27 07:55:34;;;;;;;12.55;2.97;;;4.70;99.90;;;;;;5061750;28;20072;-48
2023/12/27 07:58:00;;;;;;;8.63;2.67;;;4.80;99.90;;;;;;5061542;28;20064;-47
2023/12/27 08:00:26;;;;;;;10.00;4.03;;;4.80;99.90;;;;;;5063063;28;20740;-48
2023/12/27 08:02:53;;;;;;;12.02;3.28;;;4.80;99.90;;;;;;5065300;28;20052;-47
2023/12/27 08:05:18;;;;;;;14.90;3.50;;;4.80;99.90;;;;;;5064782;28;20040;-49
2023/12/27 08:07:45;;;;;;;11.40;3.08;;;4.70;99.90;;;;;;5063213;28;20118;-50
2023/12/27 08:10:10;;;;;;;17.45;3.55;;;4.80;99.90;;;;;;5062979;28;20039;-48
2023/12/27 08:12:36;;;;;;;9.52;3.30;;;4.80;99.90;;;;;;5062048;28;20040;-48
2023/12/27 08:15:02;;;;;;;13.88;3.70;;;4.80;99.90;;;;;;5059269;28;20116;-46
2023/12/27 08:17:28;;;;;;;12.57;3.63;;;4.80;99.90;;;;;;5058961;28;20039;-48
2023/12/27 08:19:54;;;;;;;12.05;3.55;;;4.80;99.90;;;;;;5060881;28;20044;-49
2023/12/27 08:22:20;;;;;;;12.00;4.30;;;4.80;99.90;;;;;;5047188;28;20449;-47
2023/12/27 08:24:46;;;;;;;12.25;4.15;;;4.80;99.90;;;;;;5058592;28;20478;-47
2023/12/27 08:27:12;;;;;;;14.27;3.75;;;4.80;99.90;;;;;;5059563;28;20821;-50
2023/12/27 08:29:38;;;;;;;16.88;3.97;;;4.80;99.90;;;;;;5063333;28;20418;-50
2023/12/27 08:32:04;;;;;;;13.68;3.72;;;4.90;99.90;;;;;;5064541;28;20136;-51
2023/12/27 08:34:30;;;;;;;15.05;4.80;;;4.80;99.90;;;;;;5063057;28;20407;-47
2023/12/27 08:36:56;;;;;;;13.82;3.95;;;4.80;99.90;;;;;;5063312;28;20431;-46
2023/12/27 08:39:21;;;;;;;14.43;4.50;;;4.80;99.90;;;;;;5061995;28;20124;-46
2023/12/27 08:41:47;;;;;;;9.52;4.53;;;4.80;99.90;;;;;;5057360;28;20542;-48
2023/12/27 08:44:13;;;;;;;22.10;6.45;;;4.80;99.90;;;;;;5060680;28;20044;-49
2023/12/27 08:46:39;;;;;;;15.00;4.55;;;4.90;99.90;;;;;;5064823;28;20407;-50
2023/12/27 08:49:05;;;;;;;15.55;4.80;;;4.90;99.90;;;;;;5063905;28;20141;-50
2023/12/27 08:51:31;;;;;;;17.25;7.45;;;4.90;99.90;;;;;;5064261;28;20049;-48
2023/12/27 08:53:58;;;;;;;21.23;8.68;;;4.80;99.90;;;;;;5062615;28;20072;-51
2023/12/27 08:56:24;;;;;;;14.20;5.88;;;4.90;99.90;;;;;;5058219;28;20040;-49
2023/12/27 08:58:50;;;;;;;16.10;6.05;;;4.90;99.90;;;;;;5063613;28;20039;-53
2023/12/27 09:01:16;;;;;;;12.15;4.28;;;4.80;99.90;;;;;;5045921;28;20490;-48
2023/12/27 09:03:42;;;;;;;15.57;5.93;;;4.80;99.90;;;;;;5063607;28;20505;-49
2023/12/27 09:06:09;;;;;;;16.58;5.60;;;4.90;99.90;;;;;;5055468;28;20036;-49
2023/12/27 09:08:38;;;;;;;17.33;5.53;;;4.80;99.90;;;;;;5061669;28;20044;-50
2023/12/27 09:11:04;;;;;;;14.95;5.05;;;4.90;99.90;;;;;;5063990;28;20156;-50
2023/12/27 09:13:30;;;;;;;16.38;5.07;;;4.90;99.90;;;;;;5063299;28;20040;-48
2023/12/27 09:15:56;;;;;;;9.98;5.47;;;4.90;99.90;;;;;;5064084;28;20067;-51
2023/12/27 09:18:22;;;;;;;12.55;5.90;;;4.90;99.90;;;;;;5062688;28;20514;-51
2023/12/27 09:20:47;;;;;;;11.35;5.28;;;4.90;99.90;;;;;;5056748;28;20045;-51
2023/12/27 09:23:13;;;;;;;16.70;6.15;;;5.00;99.90;;;;;;5062550;28;20047;-48
2023/12/27 09:25:40;;;;;;;14.27;4.22;;;5.00;99.90;;;;;;5064164;28;20765;-49
2023/12/27 09:28:05;;;;;;;18.35;5.97;;;5.00;99.90;;;;;;5061713;28;20048;-49
2023/12/27 09:30:31;;;;;;;15.77;5.57;;;5.00;99.90;;;;;;5062975;28;20044;-52
2023/12/27 09:32:57;;;;;;;15.00;4.95;;;5.10;99.90;;;;;;5063620;28;20076;-49
2023/12/27 09:35:23;;;;;;;16.73;5.97;;;5.10;99.90;;;;;;5063901;28;20040;-52
2023/12/27 09:37:48;;;;;;;18.52;5.13;;;5.10;99.90;;;;;;5063124;28;20040;-50
2023/12/27 09:40:14;;;;;;;15.73;6.60;;;5.10;99.90;;;;;;5062647;28;20521;-47
2023/12/27 09:42:41;;;;;;;17.88;7.63;;;5.10;99.90;;;;;;5062129;28;21096;-51
2023/12/27 09:45:11;;;;;;;20.25;6.13;;;5.10;99.90;;;;;;5063958;28;20087;-50
2023/12/27 09:47:39;;;;;;;10.18;4.50;;;5.20;99.90;;;;;;5061180;28;20051;-47
2023/12/27 09:50:06;;;;;;;13.20;4.35;;;5.20;99.90;;;;;;5059274;28;20044;-47
2023/12/27 09:52:36;;;;;;;15.88;4.55;;;5.20;99.90;;;;;;5063110;28;20033;-51
2023/12/27 09:55:02;;;;;;;8.20;3.47;;;5.20;99.90;;;;;;5062976;28;20046;-51
2023/12/27 09:57:29;;;;;;;11.40;3.53;;;5.30;99.90;;;;;;5062679;28;20066;-48
2023/12/27 09:59:56;;;;;;;11.10;3.35;;;5.30;99.90;;;;;;5063210;28;20604;-50
2023/12/27 10:02:23;;;;;;;15.88;3.85;;;5.30;99.90;;;;;;5055041;28;20044;-49
2023/12/27 10:05:05;;;;;;;17.70;4.10;;;5.40;99.90;;;;;;5049870;28;20079;-52
2023/12/27 10:07:32;;;;;;;17.80;4.10;;;5.40;99.90;;;;;;5061543;28;20584;-48
2023/12/27 10:09:58;;;;;;;13.43;3.40;;;5.40;99.90;;;;;;5062946;28;20048;-48
2023/12/27 10:12:24;;;;;;;18.17;3.78;;;5.50;99.90;;;;;;5063075;28;20048;-48
2023/12/27 10:14:52;;;;;;;16.35;3.67;;;5.50;99.90;;;;;;5061641;28;20044;-48
2023/12/27 10:17:19;;;;;;;14.23;3.72;;;5.50;99.90;;;;;;5062947;28;20320;-52
2023/12/27 10:19:45;;;;;;;13.50;4.43;;;5.50;99.90;;;;;;5062575;28;20036;-51
2023/12/27 10:22:12;;;;;;;16.27;4.10;;;5.50;99.90;;;;;;5061952;28;20399;-50
2023/12/27 10:24:38;;;;;;;13.93;4.22;;;5.60;99.90;;;;;;5054846;28;20528;-51
2023/12/27 10:27:06;;;;;;;13.10;4.63;;;5.60;99.90;;;;;;5041219;28;20057;-48
2023/12/27 10:29:32;;;;;;;16.48;5.63;;;5.60;99.90;;;;;;5055856;28;20048;-48
2023/12/27 10:31:59;;;;;;;13.20;4.85;;;5.70;99.90;;;;;;5054265;28;20037;-47
2023/12/27 10:34:26;;;;;;;14.00;5.07;;;5.70;99.90;;;;;;5056356;28;20040;-50
2023/12/27 10:36:53;;;;;;;19.05;5.75;;;5.70;99.90;;;;;;5056686;28;20633;-48
2023/12/27 10:39:19;;;;;;;13.35;4.35;;;5.80;99.90;;;;;;5056473;28;20071;-48
2023/12/27 10:41:45;;;;;;;18.17;4.70;;;5.80;99.90;;;;;;5062565;28;20127;-50
2023/12/27 10:44:12;;;;;;;12.07;4.10;;;5.80;99.90;;;;;;5062594;28;20139;-49
2023/12/27 10:46:39;;;;;;;18.90;5.43;;;5.80;99.90;;;;;;5062111;28;20484;-49
2023/12/27 10:49:06;;;;;;;17.83;5.50;;;5.90;99.90;;;;;;5062605;28;20051;-48
2023/12/27 10:51:38;;;;;;;16.50;6.15;;;5.90;99.90;;;;;;5044430;28;20148;-49
2023/12/27 10:54:05;;;;;;;12.80;5.50;;;5.90;99.90;;;;;;5055798;28;20494;-49
2023/12/27 10:56:41;;;;;;;22.55;7.07;;;5.90;99.90;;;;;;5047993;28;20359;-49
2023/12/27 10:59:10;;;;;;;15.05;5.72;;;5.90;99.90;;;;;;5048342;28;20041;-51
2023/12/27 11:01:38;;;;;;;18.13;6.10;;;6.00;99.90;;;;;;5056534;28;20597;-48
2023/12/27 11:04:08;;;;;;;17.52;6.53;;;6.00;99.90;;;;;;5060698;28;20414;-48
2023/12/27 11:06:38;;;;;;;17.45;6.05;;;6.00;99.90;;;;;;5060492;28;20054;-49
2023/12/27 11:09:07;;;;;;;13.23;6.20;;;6.00;99.90;;;;;;5061708;28;20082;-50
2023/12/27 11:11:36;;;;;;;18.15;5.90;;;6.10;99.90;;;;;;5058139;28;20395;-49
2023/12/27 11:14:03;;;;;;;;;;;6.00;99.90;;;;;;5058240;28;20040;-51
2023/12/27 11:16:33;;;;;;;15.70;5.95;;;6.10;99.90;;;;;;5059512;28;20313;-51
2023/12/27 11:19:01;;;;;;;21.63;6.65;;;6.10;99.90;;;;;;5062090;28;20435;-51
2023/12/27 11:21:27;;;;;;;18.88;6.20;;;6.10;99.90;;;;;;5041635;28;20110;-48
2023/12/27 11:23:53;;;;;;;22.05;7.13;;;6.10;99.90;;;;;;5060343;28;20414;-49
2023/12/27 11:26:19;;;;;;;16.58;6.95;;;6.10;99.90;;;;;;5061164;28;20063;-50
2023/12/27 11:28:46;;;;;;;20.58;6.50;;;6.10;99.90;;;;;;5062381;28;20368;-49
2023/12/27 11:31:13;;;;;;;18.98;6.78;;;6.10;99.90;;;;;;5058752;28;20055;-51
2023/12/27 11:33:42;;;;;;;19.23;7.30;;;6.10;99.90;;;;;;5050496;28;20040;-48
2023/12/27 11:36:08;;;;;;;;;;;6.10;99.90;;;;;;5063908;28;20037;-47
2023/12/27 11:38:33;;;;;;;17.77;7.18;;;6.10;99.90;;;;;;5065302;28;20175;-50
2023/12/27 11:41:01;;;;;;;18.60;7.05;;;6.10;99.90;;;;;;5065164;28;20503;-47
2023/12/27 11:43:47;;;;;;;22.02;7.28;;;6.10;99.90;;;;;;5065064;28;20044;-48
2023/12/27 11:46:13;;;;;;;18.48;7.38;;;6.10;99.90;;;;;;5042376;28;20040;-49
2023/12/27 11:48:39;;;;;;;19.73;7.50;;;6.10;99.90;;;;;;5065706;28;20054;-51
2023/12/27 11:51:32;;;;;;;19.55;7.78;;;6.10;99.90;;;;;;5064793;28;20449;-50
2023/12/27 11:53:58;;;;;;;17.00;7.80;;;6.10;99.90;;;;;;5065082;28;20101;-49
2023/12/27 11:56:31;;;;;;;22.08;8.38;;;6.10;99.90;;;;;;5064956;28;20040;-49
2023/12/27 11:58:59;;;;;;;21.02;8.13;;;6.10;99.90;;;;;;5048047;28;20037;-50
2023/12/27 12:01:27;;;;;;;18.48;8.35;;;6.10;99.90;;;;;;5064980;28;20047;-49
2023/12/27 12:04:32;;;;;;;17.20;7.82;;;6.00;99.90;;;;;;5065560;28;20040;-47
2023/12/27 12:07:27;;;;;;;21.05;8.57;;;6.00;99.90;;;;;;5056907;28;20056;-48
2023/12/27 12:09:54;;;;;;;18.27;8.32;;;6.00;99.90;;;;;;5052508;28;20492;-46
2023/12/27 12:12:21;;;;;;;18.13;8.18;;;5.90;99.90;;;;;;5053472;28;20147;-50
2023/12/27 12:14:49;;;;;;;16.80;8.43;;;6.00;99.90;;;;;;5057154;28;20036;-48
2023/12/27 12:17:15;;;;;;;17.77;8.83;;;6.00;99.90;;;;;;5061688;28;20032;-51
2023/12/27 12:19:41;;;;;;;20.05;9.13;;;5.90;99.90;;;;;;5062546;28;20089;-48
2023/12/27 12:22:07;;;;;;;23.88;10.63;;;5.90;99.90;;;;;;5060064;28;20596;-47
2023/12/27 12:24:33;;;;;;;18.95;9.52;;;6.00;99.90;;;;;;5058806;28;20352;-47
2023/12/27 12:27:00;;;;;;;26.33;10.43;;;6.00;99.90;;;;;;5059354;28;20382;-48
2023/12/27 12:29:26;;;;;;;23.73;10.45;;;5.90;99.90;;;;;;5062642;28;20212;-47
2023/12/27 12:31:56;;;;;;;18.98;10.88;;;6.00;99.90;;;;;;5064096;28;20051;-50
2023/12/27 12:34:22;;;;;;;20.83;10.18;;;5.90;99.90;;;;;;5063344;28;20036;-52
2023/12/27 12:36:49;;;;;;;19.90;10.52;;;6.10;99.90;;;;;;5063539;28;20040;-47
2023/12/27 12:39:16;;;;;;;20.10;10.13;;;6.00;99.90;;;;;;5060835;28;20107;-48
2023/12/27 12:41:42;;;;;;;20.80;9.60;;;6.00;99.90;;;;;;5050798;28;20510;-49
2023/12/27 12:44:11;;;;;;;25.20;10.68;;;6.00;99.90;;;;;;5064469;28;20052;-47